createdAt,value
2017-06-02T00:00:47.018Z,101823
2017-06-02T00:03:15.947Z,101826
2017-06-02T00:05:44.901Z,101819
2017-06-02T00:08:13.856Z,101813
2017-06-02T00:10:42.779Z,101820
2017-06-02T00:13:11.759Z,101812
2017-06-02T00:15:40.690Z,101813
2017-06-02T00:18:09.619Z,101818
2017-06-02T00:20:38.594Z,101807
2017-06-02T00:23:07.527Z,101799
2017-06-02T00:25:36.454Z,101808
2017-06-02T00:28:05.405Z,101797
2017-06-02T00:30:34.334Z,101795
2017-06-02T00:33:03.254Z,101797
2017-06-02T00:35:32.206Z,101793
2017-06-02T00:38:01.144Z,101788
2017-06-02T00:40:30.090Z,101784
2017-06-02T00:42:59.049Z,101786
2017-06-02T00:45:27.971Z,101786
2017-06-02T00:47:56.897Z,101795
2017-06-02T00:50:25.854Z,101783
2017-06-02T00:52:54.792Z,101793
2017-06-02T00:55:23.733Z,101790
2017-06-02T00:57:52.701Z,101786
2017-06-02T01:00:21.644Z,101785
2017-06-02T01:02:50.584Z,101778
2017-06-02T01:05:19.551Z,101779
2017-06-02T01:07:48.492Z,101779
2017-06-02T01:10:17.418Z,101776
2017-06-02T01:12:46.388Z,101766
2017-06-02T01:15:15.310Z,101772
2017-06-02T01:17:44.235Z,101773
2017-06-02T01:20:13.185Z,101780
2017-06-02T01:22:42.129Z,101777
2017-06-02T01:25:11.050Z,101774
2017-06-02T01:27:40.007Z,101775
2017-06-02T01:30:08.946Z,101766
2017-06-02T01:32:37.893Z,101768
2017-06-02T01:35:06.866Z,101772
2017-06-02T01:37:35.816Z,101770
2017-06-02T01:40:04.756Z,101761
2017-06-02T01:42:33.709Z,101760
2017-06-02T01:45:02.637Z,101761
2017-06-02T01:47:31.582Z,101761
2017-06-02T01:50:00.538Z,101763
2017-06-02T01:52:29.486Z,101770
2017-06-02T01:54:58.410Z,101773
2017-06-02T01:57:27.386Z,101779
2017-06-02T01:59:56.311Z,101777
2017-06-02T02:02:25.253Z,101774
2017-06-02T02:04:54.197Z,101782
2017-06-02T02:07:23.123Z,101774
2017-06-02T02:09:52.068Z,101785
2017-06-02T02:12:21.037Z,101769
2017-06-02T02:14:49.989Z,101768
2017-06-02T02:17:18.921Z,101770
2017-06-02T02:19:47.892Z,101769
2017-06-02T02:22:16.826Z,101766
2017-06-02T02:24:45.769Z,101767
2017-06-02T02:27:14.726Z,101763
2017-06-02T02:29:43.653Z,101769
2017-06-02T02:32:12.577Z,101765
2017-06-02T02:34:41.537Z,101768
2017-06-02T02:37:10.457Z,101767
2017-06-02T02:39:39.405Z,101764
2017-06-02T02:42:08.350Z,101758
2017-06-02T02:44:37.280Z,101770
2017-06-02T02:47:06.204Z,101759
2017-06-02T02:49:35.152Z,101752
2017-06-02T02:52:04.097Z,101753
2017-06-02T02:54:33.039Z,101752
2017-06-02T02:57:02.010Z,101757
2017-06-02T02:59:30.934Z,101758
2017-06-02T03:01:59.862Z,101745
2017-06-02T03:04:28.835Z,101750
2017-06-02T03:06:57.754Z,101751
2017-06-02T03:09:26.697Z,101752
2017-06-02T03:11:55.681Z,101750
2017-06-02T03:14:24.621Z,101753
2017-06-02T03:16:53.543Z,101747
2017-06-02T03:19:22.498Z,101747
2017-06-02T03:21:51.421Z,101746
2017-06-02T03:24:20.349Z,101741
2017-06-02T03:26:49.298Z,101746
2017-06-02T03:29:18.302Z,101740
2017-06-02T03:31:47.234Z,101735
2017-06-02T03:34:16.630Z,101741
2017-06-02T03:36:45.551Z,101734
2017-06-02T03:39:14.472Z,101741
2017-06-02T03:41:43.417Z,101750
2017-06-02T03:44:12.342Z,101740
2017-06-02T03:46:41.297Z,101738
2017-06-02T03:49:10.261Z,101743
2017-06-02T03:51:39.204Z,101736
2017-06-02T03:54:08.157Z,101744
2017-06-02T03:56:37.129Z,101745
2017-06-02T03:59:06.058Z,101742
2017-06-02T04:01:34.973Z,101743
2017-06-02T04:04:03.936Z,101741
2017-06-02T04:06:32.854Z,101739
2017-06-02T04:09:01.796Z,101737
2017-06-02T04:11:30.777Z,101732
2017-06-02T04:13:59.711Z,101737
2017-06-02T04:16:28.630Z,101739
2017-06-02T04:18:57.602Z,101737
2017-06-02T04:21:26.534Z,101751
2017-06-02T04:23:55.458Z,101737
2017-06-02T04:26:24.434Z,101742
2017-06-02T04:28:53.359Z,101733
2017-06-02T04:31:22.301Z,101722
2017-06-02T04:33:51.253Z,101727
2017-06-02T04:36:20.203Z,101731
2017-06-02T04:38:49.142Z,101728
2017-06-02T04:41:18.112Z,101735
2017-06-02T04:43:47.048Z,101735
2017-06-02T04:46:15.981Z,101732
2017-06-02T04:48:44.961Z,101732
2017-06-02T04:51:13.909Z,101731
2017-06-02T04:53:42.840Z,101728
2017-06-02T04:56:11.798Z,101732
2017-06-02T04:58:40.743Z,101732
2017-06-02T05:01:09.685Z,101728
2017-06-02T05:03:38.634Z,101733
2017-06-02T05:06:07.579Z,101727
2017-06-02T05:08:36.497Z,101724
2017-06-02T05:11:05.453Z,101733
2017-06-02T05:13:34.378Z,101730
2017-06-02T05:16:03.328Z,101737
2017-06-02T05:18:32.301Z,101735
2017-06-02T05:21:01.222Z,101734
2017-06-02T05:23:30.142Z,101732
2017-06-02T05:25:59.115Z,101727
2017-06-02T05:28:28.052Z,101729
2017-06-02T05:30:56.974Z,101733
2017-06-02T05:33:25.946Z,101739
2017-06-02T05:35:54.884Z,101736
2017-06-02T05:38:23.825Z,101734
2017-06-02T05:40:52.783Z,101737
2017-06-02T05:43:21.727Z,101735
2017-06-02T05:45:50.673Z,101749
2017-06-02T05:48:19.649Z,101735
2017-06-02T05:50:48.569Z,101731
2017-06-02T05:53:17.493Z,101732
2017-06-02T05:55:46.444Z,101724
2017-06-02T05:58:15.380Z,101732
2017-06-02T06:00:44.303Z,101722
2017-06-02T06:03:13.267Z,101734
2017-06-02T06:05:42.189Z,101734
2017-06-02T06:08:11.132Z,101736
2017-06-02T06:10:40.098Z,101747
2017-06-02T06:13:09.018Z,101740
2017-06-02T06:15:37.935Z,101737
2017-06-02T06:18:06.901Z,101739
2017-06-02T06:20:35.847Z,101735
2017-06-02T06:23:04.796Z,101739
2017-06-02T06:25:33.748Z,101746
2017-06-02T06:28:02.690Z,101737
2017-06-02T06:30:31.618Z,101748
2017-06-02T06:33:00.574Z,101735
2017-06-02T06:35:29.510Z,101738
2017-06-02T06:37:58.874Z,101730
2017-06-02T06:40:27.841Z,101740
2017-06-02T06:42:56.771Z,101742
2017-06-02T06:45:25.717Z,101749
2017-06-02T06:47:54.688Z,101739
2017-06-02T06:50:23.618Z,101741
2017-06-02T06:52:52.547Z,101733
2017-06-02T06:55:21.525Z,101734
2017-06-02T06:57:50.447Z,101732
2017-06-02T07:00:19.393Z,101739
2017-06-02T07:02:48.389Z,101725
2017-06-02T07:05:17.312Z,101729
2017-06-02T07:07:46.241Z,101723
2017-06-02T07:10:15.203Z,101714
2017-06-02T07:12:44.146Z,101712
2017-06-02T07:15:13.067Z,101722
2017-06-02T07:17:42.045Z,101730
2017-06-02T07:20:10.968Z,101733
2017-06-02T07:22:39.912Z,101729
2017-06-02T07:25:08.865Z,101732
2017-06-02T07:27:37.808Z,101733
2017-06-02T07:30:06.725Z,101729
2017-06-02T07:32:35.702Z,101736
2017-06-02T07:35:04.640Z,101736
2017-06-02T07:37:33.565Z,101739
2017-06-02T07:40:02.954Z,101730
2017-06-02T07:42:31.873Z,101735
2017-06-02T07:45:00.794Z,101730
2017-06-02T07:47:29.755Z,101730
2017-06-02T07:49:58.690Z,101725
2017-06-02T07:52:27.637Z,101724
2017-06-02T07:54:56.594Z,101726
2017-06-02T07:57:25.541Z,101724
2017-06-02T07:59:54.469Z,101729
2017-06-02T08:02:23.557Z,101712
2017-06-02T08:04:52.489Z,101721
2017-06-02T08:07:21.417Z,101718
2017-06-02T08:09:50.391Z,101715
2017-06-02T08:12:19.332Z,101729
2017-06-02T08:14:48.284Z,101721
2017-06-02T08:17:17.230Z,101715
2017-06-02T08:19:46.154Z,101710
2017-06-02T08:22:15.096Z,101718
2017-06-02T08:24:44.042Z,101716
2017-06-02T08:27:12.970Z,101714
2017-06-02T08:29:41.909Z,101712
2017-06-02T08:32:10.876Z,101715
2017-06-02T08:34:39.799Z,101709
2017-06-02T08:37:08.737Z,101717
2017-06-02T08:39:37.700Z,101727
2017-06-02T08:42:06.643Z,101725
2017-06-02T08:44:35.583Z,101722
2017-06-02T08:47:04.534Z,101720
2017-06-02T08:49:33.490Z,101718
2017-06-02T08:52:02.414Z,101724
2017-06-02T08:54:31.385Z,101718
2017-06-02T08:57:00.320Z,101715
2017-06-02T08:59:29.256Z,101717
2017-06-02T09:01:58.218Z,101719
2017-06-02T09:04:27.138Z,101727
2017-06-02T09:06:56.070Z,101725
2017-06-02T09:09:25.013Z,101732
2017-06-02T09:11:53.949Z,101730
2017-06-02T09:14:22.884Z,101728
2017-06-02T09:16:51.844Z,101727
2017-06-02T09:19:20.780Z,101733
2017-06-02T09:21:49.717Z,101726
2017-06-02T09:24:18.661Z,101737
2017-06-02T09:26:47.577Z,101736
2017-06-02T09:29:16.493Z,101731
2017-06-02T09:31:45.461Z,101731
2017-06-02T09:34:14.384Z,101730
2017-06-02T09:36:43.325Z,101729
2017-06-02T09:39:12.292Z,101732
2017-06-02T09:41:41.224Z,101731
2017-06-02T09:44:10.156Z,101725
2017-06-02T09:46:39.124Z,101727
2017-06-02T09:49:08.040Z,101733
2017-06-02T09:51:36.982Z,101750
2017-06-02T09:54:05.954Z,101751
2017-06-02T09:56:34.894Z,101739
2017-06-02T09:59:03.812Z,101740
2017-06-02T10:01:32.758Z,101753
2017-06-02T10:04:01.677Z,101741
2017-06-02T10:06:30.601Z,101739
2017-06-02T10:08:59.556Z,101737
2017-06-02T10:11:28.496Z,101740
2017-06-02T10:13:57.437Z,101736
2017-06-02T10:16:26.406Z,101734
2017-06-02T10:18:55.318Z,101732
2017-06-02T10:21:24.259Z,101734
2017-06-02T10:23:53.233Z,101738
2017-06-02T10:26:22.153Z,101733
2017-06-02T10:28:51.074Z,101740
2017-06-02T10:31:20.023Z,101736
2017-06-02T10:33:48.959Z,101729
2017-06-02T10:36:17.905Z,101729
2017-06-02T10:38:46.868Z,101728
2017-06-02T10:41:15.804Z,101721
2017-06-02T10:43:44.726Z,101717
2017-06-02T10:46:13.696Z,101717
2017-06-02T10:48:42.633Z,101728
2017-06-02T10:51:11.568Z,101723
2017-06-02T10:53:40.514Z,101724
2017-06-02T10:56:09.434Z,101714
2017-06-02T10:58:38.358Z,101718
2017-06-02T11:01:07.301Z,101709
2017-06-02T11:03:36.218Z,101713
2017-06-02T11:06:05.130Z,101717
2017-06-02T11:08:34.084Z,101719
2017-06-02T11:11:03.017Z,101704
2017-06-02T11:13:31.938Z,101710
2017-06-02T11:16:01.876Z,101702
2017-06-02T11:18:30.802Z,101705
2017-06-02T11:20:59.801Z,101703
2017-06-02T11:23:28.758Z,101711
2017-06-02T11:25:57.678Z,101714
2017-06-02T11:28:26.616Z,101713
2017-06-02T11:30:55.574Z,101707
2017-06-02T11:33:24.523Z,101711
2017-06-02T11:35:53.446Z,101714
2017-06-02T11:38:22.415Z,101709
2017-06-02T11:40:51.357Z,101703
2017-06-02T11:43:20.296Z,101698
2017-06-02T11:45:49.281Z,101707
2017-06-02T11:48:18.210Z,101699
2017-06-02T11:50:47.143Z,101706
2017-06-02T11:53:16.102Z,101695
2017-06-02T11:55:45.023Z,101695
2017-06-02T11:58:13.942Z,101694
2017-06-02T12:00:43.314Z,101688
2017-06-02T12:03:12.253Z,101683
2017-06-02T12:05:41.191Z,101687
2017-06-02T12:08:10.145Z,101684
2017-06-02T12:10:39.095Z,101685
2017-06-02T12:13:08.045Z,101680
2017-06-02T12:15:37.033Z,101686
2017-06-02T12:18:05.976Z,101685
2017-06-02T12:20:34.922Z,101688
2017-06-02T12:23:03.874Z,101676
2017-06-02T12:25:32.806Z,101681
2017-06-02T12:28:01.755Z,101675
2017-06-02T12:30:30.727Z,101672
2017-06-02T12:32:59.680Z,101673
2017-06-02T12:35:28.628Z,101669
2017-06-02T12:37:57.615Z,101668
2017-06-02T12:40:26.569Z,101669
2017-06-02T12:42:55.521Z,101668
2017-06-02T12:45:24.513Z,101667
2017-06-02T12:47:53.438Z,101665
2017-06-02T12:50:22.388Z,101665
2017-06-02T12:52:51.377Z,101661
2017-06-02T12:55:20.301Z,101657
2017-06-02T12:57:49.250Z,101648
2017-06-02T13:00:18.232Z,101654
2017-06-02T13:02:47.158Z,101648
2017-06-02T13:05:16.082Z,101634
2017-06-02T13:07:45.064Z,101640
2017-06-02T13:10:14.006Z,101641
2017-06-02T13:12:42.952Z,101638
2017-06-02T13:15:11.929Z,101639
2017-06-02T13:17:40.858Z,101649
2017-06-02T13:20:09.787Z,101637
2017-06-02T13:22:38.777Z,101634
2017-06-02T13:25:07.728Z,101635
2017-06-02T13:27:36.670Z,101638
2017-06-02T13:30:05.631Z,101634
2017-06-02T13:32:34.619Z,101629
2017-06-02T13:35:03.538Z,101628
2017-06-02T13:37:32.516Z,101633
2017-06-02T13:40:01.473Z,101630
2017-06-02T13:42:30.409Z,101631
2017-06-02T13:44:59.379Z,101627
2017-06-02T13:47:28.333Z,101631
2017-06-02T13:49:57.288Z,101633
2017-06-02T13:52:26.280Z,101621
2017-06-02T13:54:55.210Z,101608
2017-06-02T13:57:24.161Z,101609
2017-06-02T13:59:53.141Z,101602
2017-06-02T14:02:22.103Z,101615
2017-06-02T14:04:51.056Z,101602
2017-06-02T14:07:20.013Z,101599
2017-06-02T14:09:48.968Z,101600
2017-06-02T14:12:17.916Z,101598
2017-06-02T14:14:46.885Z,101588
2017-06-02T14:17:15.829Z,101591
2017-06-02T14:19:44.770Z,101591
2017-06-02T14:22:13.722Z,101592
2017-06-02T14:24:42.654Z,101584
2017-06-02T14:27:11.586Z,101573
2017-06-02T14:29:40.546Z,101576
2017-06-02T14:32:09.493Z,101567
2017-06-02T14:34:38.444Z,101574
2017-06-02T14:37:07.421Z,101572
2017-06-02T14:39:36.381Z,101567
2017-06-02T14:42:05.328Z,101573
2017-06-02T14:44:34.323Z,101566
2017-06-02T14:47:03.277Z,101571
2017-06-02T14:49:32.233Z,101576
2017-06-02T14:52:01.194Z,101571
2017-06-02T14:54:30.147Z,101566
2017-06-02T14:56:59.084Z,101569
2017-06-02T14:59:28.054Z,101573
2017-06-02T15:01:57.001Z,101570
2017-06-02T15:04:25.948Z,101566
2017-06-02T15:06:54.929Z,101556
2017-06-02T15:09:23.870Z,101556
2017-06-02T15:11:52.802Z,101558
2017-06-02T15:14:21.777Z,101551
2017-06-02T15:16:50.724Z,101547
2017-06-02T15:19:19.662Z,101539
2017-06-02T15:21:48.630Z,101543
2017-06-02T15:24:17.576Z,101537
2017-06-02T15:26:46.536Z,101539
2017-06-02T15:29:15.501Z,101543
2017-06-02T15:31:44.426Z,101553
2017-06-02T15:34:13.358Z,101541
2017-06-02T15:36:42.313Z,101539
2017-06-02T15:39:11.238Z,101539
2017-06-02T15:41:40.186Z,101532
2017-06-02T15:44:09.146Z,101527
2017-06-02T15:46:38.093Z,101529
2017-06-02T15:49:07.030Z,101528
2017-06-02T15:51:36.006Z,101533
2017-06-02T15:54:04.957Z,101532
2017-06-02T15:56:33.902Z,101513
2017-06-02T15:59:02.882Z,101517
2017-06-02T16:01:31.828Z,101517
2017-06-02T16:04:00.770Z,101512
2017-06-02T16:06:29.730Z,101516
2017-06-02T16:08:58.656Z,101525
2017-06-02T16:11:27.583Z,101517
2017-06-02T16:13:56.569Z,101508
2017-06-02T16:16:25.502Z,101510
2017-06-02T16:18:54.454Z,101507
2017-06-02T16:21:23.410Z,101510
2017-06-02T16:23:52.369Z,101510
2017-06-02T16:26:21.312Z,101503
2017-06-02T16:28:50.311Z,101502
2017-06-02T16:31:19.256Z,101501
2017-06-02T16:33:48.193Z,101507
2017-06-02T16:36:17.152Z,101507
2017-06-02T16:38:46.085Z,101500
2017-06-02T16:41:15.021Z,101494
2017-06-02T16:43:44.001Z,101504
2017-06-02T16:46:12.949Z,101494
2017-06-02T16:48:41.885Z,101498
2017-06-02T16:51:10.841Z,101490
2017-06-02T16:53:39.767Z,101497
2017-06-02T16:56:08.690Z,101497
2017-06-02T16:58:37.689Z,101496
2017-06-02T17:01:06.614Z,101503
2017-06-02T17:03:35.537Z,101500
2017-06-02T17:06:04.489Z,101507
2017-06-02T17:08:33.419Z,101505
2017-06-02T17:11:02.372Z,101501
2017-06-02T17:13:31.349Z,101498
2017-06-02T17:16:00.277Z,101495
2017-06-02T17:18:29.230Z,101499
2017-06-02T17:20:58.183Z,101504
2017-06-02T17:23:27.129Z,101496
2017-06-02T17:25:56.089Z,101496
2017-06-02T17:28:25.043Z,101500
2017-06-02T17:30:53.978Z,101501
2017-06-02T17:33:22.951Z,101504
2017-06-02T17:35:51.912Z,101506
2017-06-02T17:38:20.853Z,101501
2017-06-02T17:40:49.782Z,101512
2017-06-02T17:43:18.754Z,101506
2017-06-02T17:45:47.697Z,101508
2017-06-02T17:48:16.625Z,101514
2017-06-02T17:50:45.578Z,101512
2017-06-02T17:53:14.503Z,101518
2017-06-02T17:55:43.443Z,101521
2017-06-02T17:58:12.430Z,101521
2017-06-02T18:00:41.400Z,101513
2017-06-02T18:03:10.322Z,101515
2017-06-02T18:05:39.277Z,101509
2017-06-02T18:08:08.230Z,101511
2017-06-02T18:10:37.192Z,101510
2017-06-02T18:13:06.145Z,101508
2017-06-02T18:15:35.070Z,101509
2017-06-02T18:18:03.992Z,101509
2017-06-02T18:20:32.950Z,101512
2017-06-02T18:23:01.876Z,101510
2017-06-02T18:25:30.806Z,101510
2017-06-02T18:27:59.763Z,101502
2017-06-02T18:30:28.709Z,101494
2017-06-02T18:32:57.629Z,101499
2017-06-02T18:35:26.612Z,101499
2017-06-02T18:37:55.575Z,101501
2017-06-02T18:40:24.497Z,101494
2017-06-02T18:42:53.464Z,101498
2017-06-02T18:45:22.413Z,101492
2017-06-02T18:47:51.333Z,101494
2017-06-02T18:50:20.278Z,101488
2017-06-02T18:52:49.216Z,101503
2017-06-02T18:55:18.152Z,101494
2017-06-02T18:57:47.132Z,101497
2017-06-02T19:00:16.069Z,101492
2017-06-02T19:02:45.013Z,101492
2017-06-02T19:05:13.986Z,101494
2017-06-02T19:07:42.924Z,101487
2017-06-02T19:10:11.846Z,101492
2017-06-02T19:12:40.806Z,101488
2017-06-02T19:15:09.752Z,101481
2017-06-02T19:17:38.670Z,101486
2017-06-02T19:20:07.631Z,101481
2017-06-02T19:22:36.569Z,101481
2017-06-02T19:25:05.494Z,101487
2017-06-02T19:27:34.441Z,101489
2017-06-02T19:30:03.359Z,101483
2017-06-02T19:32:32.290Z,101477
2017-06-02T19:35:01.262Z,101476
2017-06-02T19:37:30.200Z,101484
2017-06-02T19:39:59.158Z,101489
2017-06-02T19:42:28.145Z,101479
2017-06-02T19:44:57.087Z,101492
2017-06-02T19:47:26.028Z,101503
2017-06-02T19:49:55.001Z,101502
2017-06-02T19:52:23.944Z,101497
2017-06-02T19:54:52.871Z,101502
2017-06-02T19:57:21.818Z,101497
2017-06-02T19:59:50.771Z,101499
2017-06-02T20:02:19.701Z,101504
2017-06-02T20:04:48.753Z,101507
2017-06-02T20:07:17.688Z,101513
2017-06-02T20:09:46.632Z,101501
2017-06-02T20:12:15.573Z,101521
2017-06-02T20:14:44.521Z,101506
2017-06-02T20:17:13.441Z,101510
2017-06-02T20:19:42.409Z,101512
2017-06-02T20:22:11.334Z,101513
2017-06-02T20:24:40.303Z,101508
2017-06-02T20:27:09.301Z,101515
2017-06-02T20:29:38.225Z,101519
2017-06-02T20:32:07.148Z,101517
2017-06-02T20:34:36.110Z,101513
2017-06-02T20:37:05.038Z,101509
2017-06-02T20:39:33.973Z,101511
2017-06-02T20:42:02.918Z,101502
2017-06-02T20:44:31.847Z,101502
2017-06-02T20:47:00.775Z,101517
2017-06-02T20:49:29.748Z,101519
2017-06-02T20:51:58.670Z,101504
2017-06-02T20:54:27.615Z,101513
2017-06-02T20:56:56.596Z,101513
2017-06-02T20:59:25.543Z,101511
2017-06-02T21:01:54.465Z,101505
2017-06-02T21:04:23.426Z,101513
2017-06-02T21:06:52.346Z,101513
2017-06-02T21:09:21.288Z,101507
2017-06-02T21:11:50.245Z,101499
2017-06-02T21:14:19.162Z,101494
2017-06-02T21:16:48.090Z,101496
2017-06-02T21:19:17.041Z,101494
2017-06-02T21:21:45.965Z,101491
2017-06-02T21:24:14.900Z,101493
2017-06-02T21:26:43.854Z,101494
2017-06-02T21:29:12.779Z,101492
2017-06-02T21:31:41.710Z,101491
2017-06-02T21:34:10.671Z,101488
2017-06-02T21:36:39.614Z,101478
2017-06-02T21:39:08.560Z,101481
2017-06-02T21:41:37.509Z,101480
2017-06-02T21:44:06.449Z,101478
2017-06-02T21:46:35.397Z,101478
2017-06-02T21:49:04.372Z,101487
2017-06-02T21:51:33.301Z,101487
2017-06-02T21:54:02.241Z,101490
2017-06-02T21:56:31.209Z,101484
2017-06-02T21:59:00.152Z,101487
2017-06-02T22:01:29.111Z,101474
2017-06-02T22:03:58.199Z,101481
2017-06-02T22:06:27.144Z,101476
2017-06-02T22:08:56.086Z,101472
2017-06-02T22:11:25.046Z,101478
2017-06-02T22:13:53.985Z,101483
2017-06-02T22:16:22.911Z,101479
2017-06-02T22:18:51.882Z,101480
2017-06-02T22:21:20.832Z,101479
2017-06-02T22:23:49.753Z,101487
2017-06-02T22:26:18.735Z,101480
2017-06-02T22:28:47.680Z,101487
2017-06-02T22:31:16.621Z,101478
2017-06-02T22:33:45.575Z,101476
2017-06-02T22:36:14.520Z,101483
2017-06-02T22:38:43.466Z,101477
2017-06-02T22:41:12.439Z,101490
2017-06-02T22:43:41.381Z,101481
2017-06-02T22:46:10.315Z,101477
2017-06-02T22:48:39.291Z,101472
2017-06-02T22:51:08.236Z,101476
2017-06-02T22:53:37.176Z,101480
2017-06-02T22:56:06.145Z,101480
2017-06-02T22:58:35.092Z,101486
2017-06-02T23:01:04.014Z,101490
2017-06-02T23:03:33.004Z,101484
2017-06-02T23:06:01.945Z,101489
2017-06-02T23:08:30.866Z,101478
2017-06-02T23:10:59.842Z,101479
2017-06-02T23:13:28.803Z,101477
2017-06-02T23:15:57.734Z,101470
2017-06-02T23:18:26.690Z,101460
2017-06-02T23:20:55.609Z,101459
2017-06-02T23:23:24.526Z,101455
2017-06-02T23:25:53.497Z,101458
2017-06-02T23:28:23.469Z,101456
2017-06-02T23:30:52.393Z,101449
2017-06-02T23:33:21.373Z,101448
2017-06-02T23:35:50.290Z,101444
2017-06-02T23:38:19.212Z,101436
2017-06-02T23:40:48.185Z,101438
2017-06-02T23:43:17.132Z,101437
2017-06-02T23:45:46.085Z,101430
2017-06-02T23:48:15.037Z,101431
2017-06-02T23:50:43.977Z,101424
2017-06-02T23:53:12.928Z,101434
2017-06-02T23:55:41.922Z,101441
2017-06-02T23:58:10.856Z,101437
